createdAt,value
2018-03-29T00:00:54.772Z,5.89
2018-03-29T00:01:54.926Z,5.99
2018-03-29T00:02:55.089Z,5.89
2018-03-29T00:03:55.248Z,5.97
2018-03-29T00:04:55.405Z,5.97
2018-03-29T00:05:55.574Z,6.14
2018-03-29T00:06:55.737Z,6.09
2018-03-29T00:07:55.891Z,6.08
2018-03-29T00:08:56.050Z,6.01
2018-03-29T00:09:56.210Z,6.04
2018-03-29T00:10:56.371Z,6.01
2018-03-29T00:11:56.526Z,6.03
2018-03-29T00:12:56.690Z,6.06
2018-03-29T00:13:56.863Z,6.01
2018-03-29T00:14:57.022Z,5.97
2018-03-29T00:15:57.181Z,5.94
2018-03-29T00:16:57.342Z,6.09
2018-03-29T00:17:57.495Z,6.04
2018-03-29T00:18:57.662Z,5.93
2018-03-29T00:19:57.832Z,5.99
2018-03-29T00:20:58.050Z,5.89
2018-03-29T00:21:58.096Z,6.00
2018-03-29T00:22:58.284Z,5.97
2018-03-29T00:23:58.444Z,5.94
2018-03-29T00:24:58.633Z,5.85
2018-03-29T00:25:58.779Z,5.93
2018-03-29T00:26:58.948Z,5.90
2018-03-29T00:27:59.106Z,5.89
2018-03-29T00:28:59.241Z,5.81
2018-03-29T00:29:59.386Z,5.91
2018-03-29T00:30:59.563Z,5.79
2018-03-29T00:31:59.729Z,5.85
2018-03-29T00:32:59.865Z,5.93
2018-03-29T00:34:00.059Z,5.86
2018-03-29T00:35:00.181Z,5.99
2018-03-29T00:36:00.450Z,5.94
2018-03-29T00:37:00.492Z,5.89
2018-03-29T00:38:00.645Z,5.83
2018-03-29T00:39:00.800Z,5.91
2018-03-29T00:40:00.959Z,5.90
2018-03-29T00:41:01.111Z,5.85
2018-03-29T00:42:01.272Z,5.93
2018-03-29T00:43:01.440Z,5.91
2018-03-29T00:44:01.582Z,5.85
2018-03-29T00:45:01.781Z,5.85
2018-03-29T00:46:01.904Z,5.82
2018-03-29T00:47:02.083Z,5.67
2018-03-29T00:48:02.216Z,5.81
2018-03-29T00:49:02.354Z,5.75
2018-03-29T00:50:02.511Z,5.74
2018-03-29T00:51:02.680Z,5.75
2018-03-29T00:52:02.834Z,5.79
2018-03-29T00:53:02.966Z,5.75
2018-03-29T00:54:03.132Z,5.75
2018-03-29T00:55:03.277Z,5.74
2018-03-29T00:56:03.458Z,5.89
2018-03-29T00:57:03.644Z,5.76
2018-03-29T00:58:03.757Z,5.78
2018-03-29T00:59:03.915Z,5.76
2018-03-29T01:00:04.065Z,5.79
2018-03-29T01:01:04.223Z,5.74
2018-03-29T01:02:04.387Z,5.71
2018-03-29T01:03:04.530Z,5.67
2018-03-29T01:04:04.688Z,5.74
2018-03-29T01:05:04.831Z,5.82
2018-03-29T01:06:04.995Z,5.65
2018-03-29T01:07:05.151Z,5.67
2018-03-29T01:08:05.317Z,5.71
2018-03-29T01:09:05.501Z,5.72
2018-03-29T01:10:05.661Z,5.71
2018-03-29T01:11:05.786Z,5.60
2018-03-29T01:12:05.979Z,5.58
2018-03-29T01:13:06.236Z,5.67
2018-03-29T01:14:06.322Z,5.67
2018-03-29T01:15:06.422Z,5.56
2018-03-29T01:16:06.693Z,5.46
2018-03-29T01:17:06.782Z,5.42
2018-03-29T01:18:06.946Z,5.46
2018-03-29T01:19:07.138Z,5.48
2018-03-29T01:20:07.331Z,5.49
2018-03-29T01:21:07.452Z,5.42
2018-03-29T01:22:07.673Z,5.53
2018-03-29T01:23:08.426Z,5.38
2018-03-29T01:24:07.941Z,5.49
2018-03-29T01:25:08.010Z,5.49
2018-03-29T01:26:08.172Z,5.45
2018-03-29T01:27:08.611Z,5.49
2018-03-29T01:28:08.644Z,5.51
2018-03-29T01:29:08.735Z,5.42
2018-03-29T01:30:08.892Z,5.46
2018-03-29T01:32:03.223Z,5.31
2018-03-29T01:33:02.355Z,5.54
2018-03-29T01:34:02.533Z,5.54
2018-03-29T01:35:02.825Z,5.54
2018-03-29T01:38:29.049Z,5.43
2018-03-29T01:39:29.174Z,5.40
2018-03-29T01:40:29.341Z,5.22
2018-03-29T01:41:29.528Z,5.22
2018-03-29T01:42:29.655Z,5.28
2018-03-29T01:43:29.824Z,5.30
2018-03-29T01:44:30.017Z,5.31
2018-03-29T01:45:30.145Z,5.27
2018-03-29T01:46:30.326Z,5.35
2018-03-29T01:47:30.629Z,5.45
2018-03-29T01:48:30.723Z,5.33
2018-03-29T01:49:31.024Z,5.38
2018-03-29T01:50:31.010Z,5.43
2018-03-29T01:51:31.382Z,5.24
2018-03-29T01:52:31.408Z,5.24
2018-03-29T01:53:31.596Z,5.24
2018-03-29T01:54:32.005Z,5.21
2018-03-29T01:55:32.062Z,5.24
2018-03-29T01:56:32.178Z,5.20
2018-03-29T01:57:32.356Z,5.39
2018-03-29T01:58:32.446Z,5.21
2018-03-29T01:59:32.627Z,5.33
2018-03-29T02:00:32.766Z,5.28
2018-03-29T02:01:33.090Z,5.27
2018-03-29T02:02:33.182Z,5.24
2018-03-29T02:03:33.373Z,5.21
2018-03-29T02:04:33.533Z,5.10
2018-03-29T02:05:33.796Z,5.13
2018-03-29T02:06:33.947Z,5.12
2018-03-29T02:07:34.123Z,5.06
2018-03-29T02:08:34.100Z,5.12
2018-03-29T02:09:34.429Z,5.00
2018-03-29T02:10:34.525Z,5.00
2018-03-29T02:11:34.643Z,5.10
2018-03-29T02:12:34.787Z,5.02
2018-03-29T02:13:35.023Z,5.02
2018-03-29T02:14:35.322Z,4.88
2018-03-29T02:15:35.340Z,4.97
2018-03-29T02:16:35.671Z,4.89
2018-03-29T02:17:35.713Z,4.92
2018-03-29T02:18:35.968Z,4.91
2018-03-29T02:19:36.139Z,4.91
2018-03-29T02:20:37.256Z,4.96
2018-03-29T02:21:36.415Z,4.92
2018-03-29T02:22:36.635Z,4.99
2018-03-29T02:23:36.861Z,5.06
2018-03-29T02:24:36.905Z,4.96
2018-03-29T02:25:37.228Z,4.99
2018-03-29T02:26:37.535Z,4.92
2018-03-29T02:27:37.353Z,4.92
2018-03-29T02:28:37.495Z,4.97
2018-03-29T02:29:37.638Z,4.84
2018-03-29T02:30:38.615Z,4.89
2018-03-29T02:31:38.181Z,4.73
2018-03-29T02:32:38.230Z,4.77
2018-03-29T02:33:38.538Z,4.75
2018-03-29T02:34:38.556Z,4.88
2018-03-29T02:35:38.632Z,4.99
2018-03-29T02:36:38.814Z,5.06
2018-03-29T02:37:38.955Z,4.99
2018-03-29T02:38:40.224Z,5.00
2018-03-29T02:39:39.287Z,5.02
2018-03-29T02:40:39.494Z,4.97
2018-03-29T02:41:39.554Z,5.02
2018-03-29T02:42:39.828Z,4.92
2018-03-29T02:43:40.030Z,5.00
2018-03-29T02:44:40.135Z,4.94
2018-03-29T02:45:40.356Z,4.82
2018-03-29T02:46:40.437Z,4.78
2018-03-29T02:47:40.704Z,4.91
2018-03-29T02:48:40.893Z,4.72
2018-03-29T02:49:40.931Z,4.73
2018-03-29T02:50:41.184Z,4.67
2018-03-29T02:51:41.285Z,4.72
2018-03-29T02:52:41.409Z,4.66
2018-03-29T02:53:41.626Z,4.63
2018-03-29T02:54:41.818Z,4.67
2018-03-29T02:55:42.150Z,4.67
2018-03-29T02:56:42.673Z,4.67
2018-03-29T02:57:42.229Z,4.60
2018-03-29T02:58:42.409Z,4.58
2018-03-29T02:59:42.588Z,4.59
2018-03-29T03:00:42.664Z,4.69
2018-03-29T03:01:42.936Z,4.78
2018-03-29T03:02:43.393Z,4.84
2018-03-29T03:03:43.119Z,4.80
2018-03-29T03:04:43.395Z,4.82
2018-03-29T03:05:43.477Z,4.77
2018-03-29T03:06:43.612Z,4.72
2018-03-29T03:07:43.777Z,4.66
2018-03-29T03:08:43.983Z,4.59
2018-03-29T03:09:44.254Z,4.63
2018-03-29T03:10:44.318Z,4.60
2018-03-29T03:11:44.478Z,4.66
2018-03-29T03:12:44.730Z,4.70
2018-03-29T03:13:44.800Z,4.63
2018-03-29T03:14:45.109Z,4.58
2018-03-29T03:15:45.294Z,4.54
2018-03-29T03:16:45.211Z,4.54
2018-03-29T03:17:46.566Z,4.59
2018-03-29T03:18:46.839Z,4.54
2018-03-29T03:19:45.800Z,4.44
2018-03-29T03:20:46.181Z,4.41
2018-03-29T03:21:46.231Z,4.30
2018-03-29T03:22:46.582Z,4.22
2018-03-29T03:23:46.447Z,4.22
2018-03-29T03:24:46.730Z,4.29
2018-03-29T03:25:46.768Z,4.30
2018-03-29T03:26:46.977Z,4.34
2018-03-29T03:27:47.095Z,4.42
2018-03-29T03:28:47.406Z,4.45
2018-03-29T03:29:47.586Z,4.50
2018-03-29T03:30:47.635Z,4.59
2018-03-29T03:31:47.819Z,4.62
2018-03-29T03:32:48.243Z,4.75
2018-03-29T03:33:48.109Z,4.78
2018-03-29T03:34:48.245Z,4.70
2018-03-29T03:35:48.567Z,4.55
2018-03-29T03:36:48.699Z,4.55
2018-03-29T03:37:48.690Z,4.69
2018-03-29T03:38:48.889Z,4.72
2018-03-29T03:39:49.064Z,4.70
2018-03-29T03:40:49.322Z,4.80
2018-03-29T03:41:49.499Z,4.82
2018-03-29T03:42:49.682Z,4.72
2018-03-29T03:43:50.878Z,4.73
2018-03-29T03:44:51.213Z,4.78
2018-03-29T03:45:51.273Z,4.69
2018-03-29T03:46:51.362Z,4.72
2018-03-29T03:47:51.671Z,4.80
2018-03-29T03:48:51.832Z,4.69
2018-03-29T03:49:51.806Z,4.66
2018-03-29T03:50:52.041Z,4.75
2018-03-29T03:51:51.424Z,4.88
2018-03-29T03:52:51.566Z,4.92
2018-03-29T03:53:51.703Z,4.82
2018-03-29T03:54:51.936Z,4.86
2018-03-29T03:55:52.209Z,4.91
2018-03-29T03:56:52.278Z,4.96
2018-03-29T03:57:52.349Z,4.96
2018-03-29T03:58:52.546Z,4.86
2018-03-29T03:59:52.787Z,4.75
2018-03-29T04:00:52.803Z,4.86
2018-03-29T04:01:53.010Z,4.75
2018-03-29T04:02:52.906Z,4.94
2018-03-29T04:03:53.228Z,4.97
2018-03-29T04:04:53.183Z,4.91
2018-03-29T04:05:53.384Z,5.00
2018-03-29T04:06:53.525Z,4.89
2018-03-29T04:07:53.610Z,4.80
2018-03-29T04:08:54.589Z,4.85
2018-03-29T04:09:54.113Z,4.84
2018-03-29T04:10:54.278Z,4.88
2018-03-29T04:11:54.426Z,4.84
2018-03-29T04:12:54.545Z,4.72
2018-03-29T04:13:54.739Z,4.73
2018-03-29T04:14:54.909Z,4.77
2018-03-29T04:15:55.132Z,4.67
2018-03-29T04:16:55.331Z,4.69
2018-03-29T04:17:55.464Z,4.82
2018-03-29T04:18:55.682Z,4.77
2018-03-29T04:19:55.765Z,4.85
2018-03-29T04:20:55.919Z,4.88
2018-03-29T04:21:56.119Z,4.94
2018-03-29T04:22:56.236Z,4.75
2018-03-29T04:23:57.149Z,4.75
2018-03-29T04:24:56.648Z,4.80
2018-03-29T04:25:56.848Z,4.85
2018-03-29T04:26:56.907Z,4.89
2018-03-29T04:27:56.948Z,4.89
2018-03-29T04:28:57.089Z,4.91
2018-03-29T04:29:57.283Z,4.77
2018-03-29T04:30:57.381Z,4.91
2018-03-29T04:31:57.675Z,4.89
2018-03-29T04:32:57.717Z,4.91
2018-03-29T04:33:57.815Z,5.02
2018-03-29T04:34:58.083Z,4.94
2018-03-29T04:35:58.194Z,5.04
2018-03-29T04:36:58.532Z,5.09
2018-03-29T04:37:58.512Z,4.92
2018-03-29T04:38:58.843Z,4.92
2018-03-29T04:39:58.902Z,4.97
2018-03-29T04:40:59.080Z,5.04
2018-03-29T04:41:59.557Z,5.02
2018-03-29T04:42:59.386Z,4.89
2018-03-29T04:43:59.559Z,4.88
2018-03-29T04:44:59.696Z,4.75
2018-03-29T04:46:01.686Z,4.77
2018-03-29T04:46:59.871Z,4.80
2018-03-29T04:48:00.183Z,4.67
2018-03-29T04:49:00.511Z,4.66
2018-03-29T04:50:00.435Z,4.73
2018-03-29T04:51:00.710Z,4.72
2018-03-29T04:52:00.783Z,4.60
2018-03-29T04:53:01.035Z,4.72
2018-03-29T04:54:01.281Z,4.69
2018-03-29T04:55:01.311Z,4.72
2018-03-29T04:56:01.423Z,4.63
2018-03-29T04:57:01.812Z,4.67
2018-03-29T04:58:01.924Z,4.72
2018-03-29T04:59:02.013Z,4.88
2018-03-29T05:00:02.042Z,4.73
2018-03-29T05:01:02.217Z,4.75
2018-03-29T05:02:02.511Z,4.77
2018-03-29T05:03:02.501Z,4.77
2018-03-29T05:04:02.657Z,4.65
2018-03-29T05:05:03.112Z,4.77
2018-03-29T05:06:03.011Z,4.82
2018-03-29T05:07:03.224Z,4.80
2018-03-29T05:08:03.400Z,4.77
2018-03-29T05:09:03.718Z,4.75
2018-03-29T05:10:03.642Z,4.72
2018-03-29T05:11:03.751Z,4.85
2018-03-29T05:12:03.950Z,4.84
2018-03-29T05:13:04.193Z,4.73
2018-03-29T05:14:04.339Z,4.80
2018-03-29T05:15:04.496Z,4.78
2018-03-29T05:16:04.719Z,4.85
2018-03-29T05:17:04.899Z,4.75
2018-03-29T05:18:05.059Z,4.72
2018-03-29T05:19:05.172Z,4.75
2018-03-29T05:20:05.277Z,4.73
2018-03-29T05:21:05.490Z,4.85
2018-03-29T05:22:05.596Z,4.84
2018-03-29T05:23:05.777Z,4.94
2018-03-29T05:24:06.070Z,4.84
2018-03-29T05:25:06.122Z,4.77
2018-03-29T05:26:07.048Z,4.89
2018-03-29T05:27:06.560Z,4.88
2018-03-29T05:28:06.664Z,4.91
2018-03-29T05:29:06.829Z,5.02
2018-03-29T05:30:06.949Z,4.94
2018-03-29T05:31:07.093Z,4.91
2018-03-29T05:32:07.486Z,4.89
2018-03-29T05:33:07.504Z,4.92
2018-03-29T05:34:07.618Z,4.99
2018-03-29T05:35:07.807Z,4.94
2018-03-29T05:36:08.012Z,5.00
2018-03-29T05:37:08.158Z,5.06
2018-03-29T05:38:08.458Z,5.04
2018-03-29T05:39:08.509Z,5.02
2018-03-29T05:40:08.642Z,4.97
2018-03-29T05:41:08.883Z,4.97
2018-03-29T05:42:08.999Z,5.04
2018-03-29T05:43:09.195Z,4.94
2018-03-29T05:44:09.392Z,4.84
2018-03-29T05:45:09.601Z,4.96
2018-03-29T05:46:09.826Z,5.09
2018-03-29T05:47:09.810Z,5.00
2018-03-29T05:48:10.081Z,4.92
2018-03-29T05:49:10.251Z,4.96
2018-03-29T05:50:10.434Z,5.02
2018-03-29T05:51:10.536Z,5.00
2018-03-29T05:52:10.797Z,5.03
2018-03-29T05:53:10.920Z,5.13
2018-03-29T05:54:11.167Z,5.09
2018-03-29T05:55:11.298Z,5.02
2018-03-29T05:56:11.398Z,5.03
2018-03-29T05:57:11.618Z,5.00
2018-03-29T05:58:11.824Z,4.92
2018-03-29T05:59:11.953Z,4.91
2018-03-29T06:00:12.063Z,5.10
2018-03-29T06:01:12.294Z,5.13
2018-03-29T06:02:12.431Z,5.12
2018-03-29T06:03:12.686Z,5.15
2018-03-29T06:04:12.757Z,5.21
2018-03-29T06:05:13.608Z,5.27
2018-03-29T06:06:13.110Z,5.43
2018-03-29T06:07:13.268Z,5.39
2018-03-29T06:08:13.506Z,5.42
2018-03-29T06:09:13.656Z,5.53
2018-03-29T06:10:13.861Z,5.56
2018-03-29T06:11:14.085Z,5.61
2018-03-29T06:12:14.171Z,5.54
2018-03-29T06:13:14.288Z,5.56
2018-03-29T06:14:14.627Z,5.61
2018-03-29T06:15:14.722Z,5.57
2018-03-29T06:16:14.937Z,5.63
2018-03-29T06:17:15.100Z,5.53
2018-03-29T06:18:15.163Z,5.48
2018-03-29T06:19:15.351Z,5.42
2018-03-29T06:20:15.485Z,5.54
2018-03-29T06:21:15.783Z,5.63
2018-03-29T06:22:15.934Z,5.68
2018-03-29T06:23:16.160Z,5.49
2018-03-29T06:24:16.274Z,5.61
2018-03-29T06:25:16.473Z,5.67
2018-03-29T06:26:16.501Z,5.71
2018-03-29T06:27:16.902Z,5.71
2018-03-29T06:28:16.906Z,5.75
2018-03-29T06:29:17.072Z,5.76
2018-03-29T06:30:17.283Z,5.67
2018-03-29T06:31:17.434Z,5.57
2018-03-29T06:32:17.614Z,5.71
2018-03-29T06:33:18.674Z,5.63
2018-03-29T06:34:17.910Z,5.67
2018-03-29T06:35:18.096Z,5.64
2018-03-29T06:36:18.365Z,5.72
2018-03-29T06:37:18.453Z,5.82
2018-03-29T06:38:18.709Z,5.81
2018-03-29T06:39:18.842Z,5.83
2018-03-29T06:40:18.939Z,6.00
2018-03-29T06:41:19.129Z,5.93
2018-03-29T06:42:19.327Z,5.94
2018-03-29T06:43:19.449Z,5.83
2018-03-29T06:44:19.715Z,5.99
2018-03-29T06:45:19.843Z,5.96
2018-03-29T06:46:20.601Z,6.06
2018-03-29T06:47:20.207Z,6.08
2018-03-29T06:48:20.278Z,5.89
2018-03-29T06:49:20.495Z,5.83
2018-03-29T06:50:20.727Z,5.90
2018-03-29T06:51:20.981Z,5.75
2018-03-29T06:52:21.182Z,5.76
2018-03-29T06:53:21.456Z,5.78
2018-03-29T06:54:21.396Z,5.81
2018-03-29T06:55:21.534Z,5.91
2018-03-29T06:56:21.698Z,5.82
2018-03-29T06:57:21.879Z,5.90
2018-03-29T06:58:22.118Z,5.89
2018-03-29T06:59:22.227Z,5.91
2018-03-29T07:00:22.448Z,5.90
2018-03-29T07:01:22.562Z,6.01
2018-03-29T07:02:22.705Z,6.03
2018-03-29T07:03:22.984Z,6.06
2018-03-29T07:04:23.048Z,5.97
2018-03-29T07:05:23.428Z,6.01
2018-03-29T07:06:23.562Z,6.11
2018-03-29T07:07:23.522Z,6.19
2018-03-29T07:08:23.726Z,6.12
2018-03-29T07:09:24.045Z,6.31
2018-03-29T07:10:24.012Z,6.31
2018-03-29T07:11:24.261Z,6.51
2018-03-29T07:12:24.491Z,6.70
2018-03-29T07:13:24.590Z,6.69
2018-03-29T07:14:24.791Z,7.12
2018-03-29T07:15:25.113Z,7.37
2018-03-29T07:16:25.299Z,7.53
2018-03-29T07:17:25.397Z,7.63
2018-03-29T07:18:25.837Z,7.67
2018-03-29T07:19:25.903Z,7.74
2018-03-29T07:20:26.010Z,7.63
2018-03-29T07:21:26.100Z,7.55
2018-03-29T07:22:26.250Z,7.67
2018-03-29T07:23:26.846Z,7.75
2018-03-29T07:24:26.708Z,7.61
2018-03-29T07:25:26.712Z,7.21
2018-03-29T07:26:26.909Z,7.31
2018-03-29T07:27:27.266Z,7.50
2018-03-29T07:28:27.190Z,7.35
2018-03-29T07:29:27.523Z,7.17
2018-03-29T07:30:27.678Z,7.10
2018-03-29T07:31:27.772Z,7.16
2018-03-29T07:32:27.989Z,7.15
2018-03-29T07:33:28.173Z,7.10
2018-03-29T07:34:28.650Z,7.16
2018-03-29T07:35:28.673Z,7.35
2018-03-29T07:36:28.740Z,7.42
2018-03-29T07:37:28.858Z,7.57
2018-03-29T07:38:29.114Z,7.42
2018-03-29T07:39:29.156Z,7.39
2018-03-29T07:40:29.439Z,7.58
2018-03-29T07:41:29.352Z,7.57
2018-03-29T07:42:29.590Z,7.53
2018-03-29T07:43:29.708Z,7.92
2018-03-29T07:44:30.047Z,7.79
2018-03-29T07:45:30.802Z,7.55
2018-03-29T07:46:30.226Z,7.69
2018-03-29T07:47:30.464Z,7.75
2018-03-29T07:48:30.637Z,7.82
2018-03-29T07:49:30.701Z,7.77
2018-03-29T07:50:30.857Z,7.89
2018-03-29T07:51:30.844Z,7.92
2018-03-29T07:52:31.360Z,7.61
2018-03-29T07:53:31.309Z,8.04
2018-03-29T07:54:31.974Z,7.97
2018-03-29T07:55:31.876Z,7.97
2018-03-29T07:56:32.335Z,7.86
2018-03-29T07:57:31.993Z,8.00
2018-03-29T07:58:32.093Z,7.79
2018-03-29T07:59:32.275Z,8.01
2018-03-29T08:00:32.590Z,7.90
2018-03-29T08:01:32.637Z,7.75
2018-03-29T08:02:32.905Z,7.95
2018-03-29T08:03:33.080Z,8.07
2018-03-29T08:04:33.144Z,8.02
2018-03-29T08:05:33.415Z,8.34
2018-03-29T08:06:33.529Z,8.47
2018-03-29T08:07:33.798Z,8.66
2018-03-29T08:08:33.889Z,8.92
2018-03-29T08:09:34.149Z,9.15
2018-03-29T08:10:34.235Z,9.58
2018-03-29T08:11:34.403Z,9.40
2018-03-29T08:12:34.688Z,9.86
2018-03-29T08:13:34.917Z,9.78
2018-03-29T08:14:34.976Z,9.86
2018-03-29T08:15:35.214Z,9.81
2018-03-29T08:16:35.281Z,9.89
2018-03-29T08:17:35.488Z,10.22
2018-03-29T08:18:35.728Z,10.18
2018-03-29T08:19:35.861Z,10.09
2018-03-29T08:20:36.078Z,10.33
2018-03-29T08:21:36.323Z,10.30
2018-03-29T08:22:36.668Z,10.01
2018-03-29T08:23:36.610Z,9.87
2018-03-29T08:24:36.783Z,9.71
2018-03-29T08:25:36.987Z,9.50
2018-03-29T08:26:37.044Z,9.32
2018-03-29T08:27:37.255Z,9.05
2018-03-29T08:28:38.332Z,9.10
2018-03-29T08:29:38.260Z,8.74
2018-03-29T08:30:38.147Z,8.80
2018-03-29T08:31:38.348Z,8.48
2018-03-29T08:32:38.193Z,8.34
2018-03-29T08:33:38.966Z,8.22
2018-03-29T08:34:38.732Z,8.04
2018-03-29T08:35:38.970Z,8.01
2018-03-29T08:36:38.729Z,8.15
2018-03-29T08:37:38.826Z,7.90
2018-03-29T08:38:39.029Z,8.05
2018-03-29T08:39:41.996Z,8.02
2018-03-29T08:40:39.511Z,8.07
2018-03-29T08:41:40.318Z,8.16
2018-03-29T08:42:39.834Z,8.28
2018-03-29T08:43:39.967Z,8.50
2018-03-29T08:44:40.047Z,8.28
2018-03-29T08:45:40.134Z,8.30
2018-03-29T08:46:40.323Z,8.63
2018-03-29T08:47:40.586Z,8.65
2018-03-29T08:48:40.676Z,8.81
2018-03-29T08:49:40.823Z,8.68
2018-03-29T08:50:41.368Z,8.71
2018-03-29T08:51:41.522Z,8.59
2018-03-29T08:52:41.553Z,8.66
2018-03-29T08:53:41.860Z,8.62
2018-03-29T08:54:41.610Z,8.66
2018-03-29T08:55:41.831Z,8.66
2018-03-29T08:56:41.939Z,8.44
2018-03-29T08:57:42.156Z,8.43
2018-03-29T08:58:42.445Z,8.37
2018-03-29T08:59:42.578Z,8.53
2018-03-29T09:00:42.652Z,8.55
2018-03-29T09:01:43.211Z,8.36
2018-03-29T09:02:43.068Z,8.37
2018-03-29T09:03:43.260Z,8.58
2018-03-29T09:04:43.220Z,8.56
2018-03-29T09:05:43.351Z,8.71
2018-03-29T09:06:43.442Z,8.70
2018-03-29T09:07:43.586Z,8.53
2018-03-29T09:08:43.826Z,8.58
2018-03-29T09:09:43.917Z,8.65
2018-03-29T09:10:44.233Z,8.62
2018-03-29T09:11:44.326Z,8.62
2018-03-29T09:12:44.506Z,8.70
2018-03-29T09:13:44.655Z,8.56
2018-03-29T09:14:45.076Z,8.45
2018-03-29T09:15:45.260Z,8.41
2018-03-29T09:16:45.070Z,8.43
2018-03-29T09:17:45.372Z,8.45
2018-03-29T09:19:37.559Z,8.41
2018-03-29T09:23:32.551Z,8.43
2018-03-29T09:24:32.088Z,8.36
2018-03-29T09:27:17.852Z,8.66
2018-03-29T09:28:16.837Z,8.59
2018-03-29T09:30:23.886Z,9.11
2018-03-29T09:31:40.293Z,9.13
2018-03-29T09:32:17.370Z,8.95
2018-03-29T09:33:24.406Z,8.99
2018-03-29T09:34:17.930Z,9.51
2018-03-29T09:35:20.576Z,9.28
2018-03-29T09:36:17.740Z,9.08
2018-03-29T09:37:23.052Z,9.26
2018-03-29T09:39:19.745Z,9.39
2018-03-29T09:40:19.392Z,9.46
2018-03-29T09:41:21.237Z,9.74
2018-03-29T09:42:20.387Z,10.71
2018-03-29T09:43:20.219Z,10.70
2018-03-29T09:44:20.899Z,10.04
2018-03-29T09:45:19.975Z,10.30
2018-03-29T09:46:20.039Z,9.91
2018-03-29T09:47:23.339Z,11.73
2018-03-29T09:49:22.534Z,11.22
2018-03-29T09:51:20.315Z,11.76
2018-03-29T09:52:21.596Z,10.97
2018-03-29T09:53:20.916Z,10.41
2018-03-29T09:54:20.788Z,10.33
2018-03-29T09:55:22.261Z,10.92
2018-03-29T09:56:25.670Z,10.79
2018-03-29T09:57:21.245Z,10.84
2018-03-29T09:58:21.661Z,10.63
2018-03-29T09:59:21.604Z,10.18
2018-03-29T10:00:22.382Z,10.32
2018-03-29T10:01:21.954Z,10.17
2018-03-29T10:02:22.227Z,9.66
2018-03-29T10:03:22.302Z,9.53
2018-03-29T10:04:22.601Z,9.53
2018-03-29T10:05:22.614Z,9.47
2018-03-29T10:06:22.905Z,9.11
2018-03-29T10:07:22.936Z,9.50
2018-03-29T10:08:23.453Z,9.48
2018-03-29T10:09:23.240Z,9.75
2018-03-29T10:10:23.624Z,9.89
2018-03-29T10:11:23.541Z,10.18
2018-03-29T10:13:58.469Z,9.93
2018-03-29T10:14:58.553Z,9.68
2018-03-29T10:15:58.860Z,9.57
2018-03-29T10:16:58.892Z,9.42
2018-03-29T10:17:59.178Z,9.31
2018-03-29T10:18:59.176Z,9.26
2018-03-29T10:19:59.482Z,9.02
2018-03-29T10:20:59.512Z,9.23
2018-03-29T10:21:59.768Z,9.35
2018-03-29T10:22:59.833Z,9.47
2018-03-29T10:24:00.135Z,9.75
2018-03-29T10:25:00.189Z,9.61
2018-03-29T10:26:00.474Z,9.29
2018-03-29T10:27:00.509Z,9.10
2018-03-29T10:28:00.733Z,9.23
2018-03-29T10:29:01.718Z,9.31
2018-03-29T10:30:01.097Z,9.93
2018-03-29T10:31:01.252Z,10.26
2018-03-29T10:32:01.509Z,10.29
2018-03-29T10:33:01.535Z,10.40
2018-03-29T10:34:02.401Z,10.47
2018-03-29T10:35:01.889Z,10.79
2018-03-29T10:36:02.124Z,10.45
2018-03-29T10:37:02.206Z,10.04
2018-03-29T10:38:03.533Z,9.93
2018-03-29T10:39:03.407Z,10.14
2018-03-29T10:40:02.746Z,9.99
2018-03-29T10:41:02.876Z,10.25
2018-03-29T10:42:03.140Z,9.75
2018-03-29T10:43:03.132Z,9.43
2018-03-29T10:44:03.442Z,9.40
2018-03-29T10:45:03.458Z,9.26
2018-03-29T10:46:03.712Z,9.23
2018-03-29T10:47:03.822Z,9.65
2018-03-29T10:48:03.955Z,9.71
2018-03-29T10:49:04.078Z,9.72
2018-03-29T10:50:05.230Z,9.66
2018-03-29T10:51:04.364Z,9.65
2018-03-29T10:52:05.473Z,9.60
2018-03-29T10:53:04.692Z,9.54
2018-03-29T10:54:04.896Z,9.29
2018-03-29T10:55:04.964Z,9.18
2018-03-29T10:56:05.463Z,8.91
2018-03-29T10:57:05.298Z,8.98
2018-03-29T10:58:06.816Z,8.94
2018-03-29T10:59:05.689Z,8.79
2018-03-29T11:00:06.928Z,8.71
2018-03-29T11:01:06.098Z,8.77
2018-03-29T11:02:07.250Z,8.74
2018-03-29T11:03:06.399Z,8.83
2018-03-29T11:04:06.648Z,8.77
2018-03-29T11:05:07.394Z,8.87
2018-03-29T11:06:06.968Z,8.79
2018-03-29T11:07:07.176Z,8.73
2018-03-29T11:08:07.279Z,8.58
2018-03-29T11:09:07.376Z,8.52
2018-03-29T11:10:07.622Z,8.36
2018-03-29T11:11:07.855Z,8.40
2018-03-29T11:12:08.078Z,8.36
2018-03-29T11:13:08.081Z,8.36
2018-03-29T11:14:08.424Z,8.44
2018-03-29T11:15:08.397Z,8.48
2018-03-29T11:16:08.688Z,8.40
2018-03-29T11:17:09.029Z,8.52
2018-03-29T11:18:08.987Z,8.50
2018-03-29T11:19:09.132Z,8.52
2018-03-29T11:20:11.410Z,8.55
2018-03-29T11:21:09.370Z,8.77
2018-03-29T11:22:10.742Z,8.84
2018-03-29T11:23:09.813Z,9.01
2018-03-29T11:24:11.137Z,9.08
2018-03-29T11:25:10.937Z,9.01
2018-03-29T11:26:10.413Z,8.96
2018-03-29T11:27:10.591Z,9.11
2018-03-29T11:28:10.818Z,8.98
2018-03-29T11:29:10.889Z,9.13
2018-03-29T11:30:11.189Z,9.40
2018-03-29T11:31:11.328Z,9.64
2018-03-29T11:32:11.587Z,9.84
2018-03-29T11:33:11.922Z,9.99
2018-03-29T11:34:12.199Z,9.90
2018-03-29T11:35:12.086Z,9.90
2018-03-29T11:36:13.342Z,10.04
2018-03-29T11:37:12.322Z,10.09
2018-03-29T11:38:12.518Z,10.07
2018-03-29T11:39:12.668Z,10.11
2018-03-29T11:40:12.966Z,10.29
2018-03-29T11:41:13.915Z,9.93
2018-03-29T11:42:13.361Z,9.90
2018-03-29T11:43:13.940Z,9.66
2018-03-29T11:44:14.440Z,9.71
2018-03-29T11:45:13.777Z,9.68
2018-03-29T11:46:14.046Z,9.47
2018-03-29T11:47:14.173Z,9.51
2018-03-29T11:48:14.510Z,9.60
2018-03-29T11:49:14.514Z,9.48
2018-03-29T11:50:14.902Z,9.31
2018-03-29T11:51:15.422Z,9.28
2018-03-29T11:52:15.164Z,9.26
2018-03-29T11:53:15.267Z,9.20
2018-03-29T11:54:16.350Z,8.98
2018-03-29T11:55:15.926Z,8.81
2018-03-29T11:56:16.831Z,8.83
2018-03-29T11:57:16.413Z,8.76
2018-03-29T11:58:16.031Z,8.55
2018-03-29T11:59:16.066Z,8.53
2018-03-29T12:00:17.376Z,8.52
2018-03-29T12:01:16.394Z,8.59
2018-03-29T12:02:16.669Z,8.89
2018-03-29T12:03:16.672Z,8.99
2018-03-29T12:04:17.027Z,8.99
2018-03-29T12:05:17.097Z,9.26
2018-03-29T12:06:19.454Z,10.44
2018-03-29T12:07:17.477Z,12.49
2018-03-29T12:08:17.656Z,12.59
2018-03-29T12:09:17.859Z,12.59
2018-03-29T12:10:18.115Z,14.07
2018-03-29T12:11:18.235Z,15.89
2018-03-29T12:12:18.408Z,16.96
2018-03-29T12:13:18.621Z,17.68
2018-03-29T12:14:18.912Z,19.18
2018-03-29T12:15:19.821Z,19.77
2018-03-29T12:16:19.848Z,19.16
2018-03-29T12:17:19.362Z,16.68
2018-03-29T12:18:19.707Z,16.81
2018-03-29T12:19:19.831Z,15.97
2018-03-29T12:20:20.103Z,16.58
2018-03-29T12:21:20.175Z,15.87
2018-03-29T12:22:20.436Z,15.71
2018-03-29T12:23:20.549Z,16.34
2018-03-29T12:24:21.770Z,16.15
2018-03-29T12:25:20.908Z,14.37
2018-03-29T12:26:22.430Z,14.35
2018-03-29T12:27:21.218Z,13.49
2018-03-29T12:28:21.785Z,12.68
2018-03-29T12:29:21.557Z,12.34
2018-03-29T12:30:21.809Z,12.35
2018-03-29T12:31:22.087Z,12.42
2018-03-29T12:32:22.156Z,12.96
2018-03-29T12:33:22.219Z,13.14
2018-03-29T12:34:22.501Z,13.73
2018-03-29T12:35:22.638Z,14.25
2018-03-29T12:36:23.420Z,14.06
2018-03-29T12:37:23.032Z,13.84
2018-03-29T12:38:23.251Z,13.75
2018-03-29T12:39:23.402Z,13.60
2018-03-29T12:40:23.655Z,13.66
2018-03-29T12:41:23.762Z,13.91
2018-03-29T12:42:24.050Z,14.07
2018-03-29T12:43:24.024Z,13.89
2018-03-29T12:45:38.929Z,14.02
2018-03-29T12:46:37.087Z,13.44
2018-03-29T12:47:37.291Z,13.12
2018-03-29T12:48:37.342Z,12.90
2018-03-29T12:49:37.672Z,12.68
2018-03-29T12:50:37.677Z,12.70
2018-03-29T12:51:37.989Z,12.72
2018-03-29T12:52:38.007Z,12.77
2018-03-29T12:53:38.384Z,12.24
2018-03-29T12:54:38.571Z,12.27
2018-03-29T12:55:38.733Z,12.21
2018-03-29T12:56:38.707Z,12.37
2018-03-29T12:57:39.011Z,12.38
2018-03-29T12:58:38.995Z,11.73
2018-03-29T12:59:41.223Z,11.58
2018-03-29T13:00:39.370Z,11.60
2018-03-29T13:01:40.556Z,11.52
2018-03-29T13:02:39.696Z,11.36
2018-03-29T13:03:41.735Z,10.88
2018-03-29T13:04:40.084Z,10.79
2018-03-29T13:05:40.245Z,10.74
2018-03-29T13:06:40.219Z,10.66
2018-03-29T13:07:41.229Z,10.51
2018-03-29T13:08:40.756Z,10.63
2018-03-29T13:09:40.776Z,10.70
2018-03-29T13:10:40.899Z,10.76
2018-03-29T13:11:42.378Z,10.63
2018-03-29T13:12:41.271Z,10.47
2018-03-29T13:13:41.776Z,10.32
2018-03-29T13:14:41.857Z,10.32
2018-03-29T13:15:41.963Z,9.86
2018-03-29T13:16:41.998Z,10.08
2018-03-29T13:17:42.377Z,10.41
2018-03-29T13:18:42.381Z,10.27
2018-03-29T13:19:42.696Z,10.18
2018-03-29T13:20:43.323Z,10.27
2018-03-29T13:21:42.947Z,10.17
2018-03-29T13:22:43.099Z,10.14
2018-03-29T13:23:43.378Z,9.99
2018-03-29T13:24:43.383Z,9.86
2018-03-29T13:25:43.685Z,9.89
2018-03-29T13:26:43.749Z,9.65
2018-03-29T13:27:44.031Z,9.66
2018-03-29T13:28:44.079Z,9.75
2018-03-29T13:29:44.329Z,9.86
2018-03-29T13:30:44.317Z,9.94
2018-03-29T13:31:45.696Z,9.93
2018-03-29T13:32:44.746Z,9.93